createdAt,value
2018-11-28T00:00:29.622Z,3.00
2018-11-28T00:05:33.143Z,2.98
2018-11-28T00:10:38.654Z,2.93
2018-11-28T00:15:42.193Z,2.98
2018-11-28T00:20:45.713Z,2.94
2018-11-28T00:25:49.271Z,2.98
2018-11-28T00:30:52.745Z,2.91
2018-11-28T00:35:56.748Z,2.85
2018-11-28T00:41:00.264Z,2.76
2018-11-28T00:46:03.774Z,2.81
2018-11-28T00:51:07.543Z,2.81
2018-11-28T00:56:11.065Z,2.83
2018-11-28T01:01:15.678Z,2.86
2018-11-28T01:06:19.292Z,2.82
2018-11-28T01:11:22.936Z,2.92
2018-11-28T01:16:27.860Z,2.92
2018-11-28T01:21:31.596Z,2.93
2018-11-28T01:26:35.385Z,2.94
2018-11-28T01:31:38.869Z,2.88
2018-11-28T01:41:51.892Z,3.01
2018-11-28T01:46:56.481Z,3.03
2018-11-28T01:52:00.058Z,2.98
2018-11-28T01:57:03.621Z,2.92
2018-11-28T02:02:09.794Z,3.01
2018-11-28T02:07:15.401Z,3.08
2018-11-28T02:12:18.879Z,2.98
2018-11-28T02:17:22.369Z,2.74
2018-11-28T02:22:31.649Z,2.75
2018-11-28T02:27:35.207Z,2.75
2018-11-28T02:32:38.701Z,2.70
2018-11-28T02:37:42.339Z,2.63
2018-11-28T02:42:46.511Z,2.76
2018-11-28T02:47:50.497Z,2.80
2018-11-28T02:52:58.371Z,2.64
2018-11-28T02:58:01.882Z,2.70
2018-11-28T03:03:05.485Z,2.56
2018-11-28T03:08:08.998Z,2.48
2018-11-28T03:13:12.493Z,2.38
2018-11-28T03:18:15.984Z,2.35
2018-11-28T03:23:19.836Z,2.35
2018-11-28T03:28:23.440Z,2.23
2018-11-28T03:33:26.985Z,2.18
2018-11-28T03:38:30.486Z,2.21
2018-11-28T03:43:34.029Z,2.17
2018-11-28T03:48:37.513Z,1.97
2018-11-28T03:53:41.057Z,1.84
2018-11-28T03:58:44.559Z,1.95
2018-11-28T04:03:53.517Z,1.99
2018-11-28T04:08:57.131Z,1.92
2018-11-28T04:14:00.624Z,1.82
2018-11-28T04:19:05.538Z,1.76
2018-11-28T04:24:10.145Z,1.68
2018-11-28T04:29:13.757Z,1.76
2018-11-28T04:34:17.258Z,1.80
2018-11-28T04:39:20.778Z,1.74
2018-11-28T04:44:24.337Z,1.74
2018-11-28T04:49:27.862Z,1.80
2018-11-28T04:54:32.431Z,1.90
2018-11-28T04:59:35.949Z,1.84
2018-11-28T05:04:39.453Z,1.68
2018-11-28T05:09:42.993Z,1.66
2018-11-28T05:14:46.609Z,1.56
2018-11-28T05:19:50.472Z,1.52
2018-11-28T05:24:54.085Z,1.56
2018-11-28T05:29:57.721Z,1.67
2018-11-28T05:35:01.387Z,1.84
2018-11-28T05:40:05.709Z,1.90
2018-11-28T05:45:11.217Z,1.97
2018-11-28T05:50:15.645Z,1.99
2018-11-28T05:55:21.602Z,2.05
2018-11-28T06:00:32.905Z,2.05
2018-11-28T06:05:36.570Z,2.15
2018-11-28T06:10:40.109Z,2.16
2018-11-28T06:15:43.595Z,2.11
2018-11-28T06:20:47.095Z,1.95
2018-11-28T06:25:50.565Z,2.09
2018-11-28T06:30:54.164Z,1.91
2018-11-28T06:35:57.745Z,1.64
2018-11-28T06:41:01.302Z,1.75
2018-11-28T06:46:04.901Z,1.54
2018-11-28T06:51:08.483Z,1.46
2018-11-28T06:56:12.066Z,1.62
2018-11-28T07:01:15.706Z,1.79
2018-11-28T07:06:19.374Z,1.85
2018-11-28T07:11:22.994Z,1.81
2018-11-28T07:16:27.167Z,1.85
2018-11-28T07:21:30.277Z,1.87
2018-11-28T07:26:33.897Z,1.90
2018-11-28T07:31:37.661Z,1.94
2018-11-28T07:36:41.196Z,1.86
2018-11-28T07:41:44.757Z,1.96
2018-11-28T07:46:48.417Z,2.03
2018-11-28T07:51:53.029Z,2.18
2018-11-28T07:56:56.652Z,2.16
2018-11-28T08:02:00.225Z,2.15
2018-11-28T08:07:03.857Z,2.15
2018-11-28T08:12:11.437Z,2.00
2018-11-28T08:17:15.134Z,2.09
2018-11-28T08:22:19.016Z,2.20
2018-11-28T08:27:22.741Z,2.33
2018-11-28T08:32:26.392Z,2.38
2018-11-28T08:37:30.046Z,2.46
2018-11-28T08:42:33.661Z,2.70
2018-11-28T08:47:37.221Z,2.92
2018-11-28T08:52:40.858Z,2.83
2018-11-28T08:57:46.489Z,2.91
2018-11-28T09:02:52.018Z,3.09
2018-11-28T09:07:55.681Z,3.21
2018-11-28T09:13:03.999Z,3.35
2018-11-28T09:18:02.829Z,3.42
2018-11-28T09:23:07.780Z,3.39
2018-11-28T09:28:11.338Z,3.40
2018-11-28T09:33:15.011Z,3.38
2018-11-28T09:38:19.432Z,3.61
2018-11-28T09:43:23.145Z,3.57
2018-11-28T09:48:26.785Z,3.67
2018-11-28T09:53:30.322Z,3.49
2018-11-28T09:58:33.882Z,3.50
2018-11-28T10:03:37.597Z,3.76
2018-11-28T10:08:41.387Z,3.63
2018-11-28T10:13:46.064Z,3.50
2018-11-28T10:18:49.817Z,3.76
2018-11-28T10:23:53.387Z,3.54
2018-11-28T10:28:57.021Z,3.64
2018-11-28T10:34:00.715Z,3.60
2018-11-28T10:39:06.029Z,3.78
2018-11-28T10:44:09.761Z,3.89
2018-11-28T10:49:13.335Z,4.25
2018-11-28T10:54:17.938Z,4.54
2018-11-28T10:59:21.499Z,4.49
2018-11-28T11:04:26.051Z,4.57
2018-11-28T11:09:34.794Z,4.36
2018-11-28T11:14:43.485Z,4.24
2018-11-28T11:19:47.108Z,4.23
2018-11-28T11:24:50.742Z,4.31
2018-11-28T11:29:54.271Z,4.22
2018-11-28T11:34:57.883Z,4.39
2018-11-28T11:40:02.514Z,4.31
2018-11-28T11:45:08.438Z,4.33
2018-11-28T11:50:16.426Z,4.25
2018-11-28T11:55:20.562Z,4.25
2018-11-28T12:00:25.340Z,4.29
2018-11-28T12:05:28.897Z,4.36
2018-11-28T12:10:32.449Z,4.36
2018-11-28T12:15:36.052Z,4.47
2018-11-28T12:20:46.106Z,4.49
2018-11-28T12:25:49.750Z,4.62
2018-11-28T12:30:53.294Z,4.61
2018-11-28T12:35:56.876Z,4.65
2018-11-28T12:41:01.461Z,4.48
2018-11-28T12:46:05.164Z,4.50
2018-11-28T12:51:09.001Z,4.58
2018-11-28T12:56:12.592Z,4.59
2018-11-28T13:01:16.304Z,4.59
2018-11-28T13:06:19.933Z,4.64
2018-11-28T13:11:23.426Z,4.67
2018-11-28T13:16:27.050Z,4.57
2018-11-28T13:21:30.540Z,4.43
2018-11-28T13:26:34.098Z,4.41
2018-11-28T13:31:37.819Z,4.41
2018-11-28T13:36:41.420Z,4.40
2018-11-28T13:41:45.098Z,4.52
2018-11-28T13:46:48.746Z,4.52
2018-11-28T13:51:52.281Z,4.47
2018-11-28T13:56:58.753Z,4.44
2018-11-28T14:01:59.485Z,4.46
2018-11-28T14:07:07.988Z,4.41
2018-11-28T14:12:11.557Z,4.42
2018-11-28T14:17:16.043Z,4.42
2018-11-28T14:22:26.346Z,4.41
2018-11-28T14:27:29.905Z,4.43
2018-11-28T14:32:33.585Z,4.42
2018-11-28T14:37:37.520Z,4.41
2018-11-28T14:42:41.029Z,4.44
2018-11-28T14:47:45.113Z,4.44
2018-11-28T14:52:48.677Z,4.41
2018-11-28T14:57:52.365Z,4.40
2018-11-28T15:02:59.134Z,4.38
2018-11-28T15:08:07.448Z,4.37
2018-11-28T15:13:11.037Z,4.32
2018-11-28T15:18:14.549Z,4.29
2018-11-28T15:23:18.354Z,4.26
2018-11-28T15:28:21.873Z,4.25
2018-11-28T15:33:25.554Z,4.26
2018-11-28T15:38:29.146Z,4.29
2018-11-28T15:43:32.839Z,4.31
2018-11-28T15:48:36.539Z,4.29
2018-11-28T15:53:40.041Z,4.22
2018-11-28T15:58:43.832Z,4.21
2018-11-28T16:03:47.852Z,4.18
2018-11-28T16:08:54.323Z,4.16
2018-11-28T16:13:57.929Z,4.15
2018-11-28T16:19:01.513Z,4.14
2018-11-28T16:24:05.402Z,4.10
2018-11-28T16:29:08.990Z,4.06
2018-11-28T16:34:12.622Z,4.06
2018-11-28T16:39:16.418Z,4.10
2018-11-28T16:44:19.896Z,4.16
2018-11-28T16:49:24.197Z,4.16
2018-11-28T16:54:27.865Z,4.16
2018-11-28T16:59:32.471Z,4.18
2018-11-28T17:04:35.964Z,4.22
2018-11-28T17:09:40.673Z,4.24
2018-11-28T17:14:46.225Z,4.26
2018-11-28T17:19:49.785Z,4.28
2018-11-28T17:24:57.148Z,4.28
2018-11-28T17:30:01.717Z,4.30
2018-11-28T17:35:05.605Z,4.26
2018-11-28T17:40:12.278Z,4.24
2018-11-28T17:45:26.611Z,4.20
2018-11-28T17:50:30.157Z,4.16
2018-11-28T17:55:50.202Z,4.20
2018-11-28T18:00:53.781Z,4.13
2018-11-28T18:05:58.504Z,4.06
2018-11-28T18:11:10.839Z,4.05
2018-11-28T18:16:17.491Z,4.05
2018-11-28T18:26:46.563Z,4.06
2018-11-28T18:31:51.249Z,4.04
2018-11-28T18:36:55.020Z,4.09
2018-11-28T18:42:09.027Z,4.21
2018-11-28T18:47:18.730Z,4.18
2018-11-28T18:52:24.393Z,4.16
2018-11-28T18:57:27.882Z,4.09
2018-11-28T19:02:32.503Z,4.04
2018-11-28T19:07:36.040Z,4.09
2018-11-28T19:12:39.956Z,4.13
2018-11-28T19:17:44.726Z,4.17
2018-11-28T19:22:48.928Z,4.15
2018-11-28T19:27:52.541Z,4.12
2018-11-28T19:33:00.858Z,4.11
2018-11-28T19:38:04.706Z,4.21
2018-11-28T19:43:08.546Z,4.34
2018-11-28T19:48:12.178Z,4.21
2018-11-28T19:53:15.754Z,4.08
2018-11-28T19:58:19.392Z,4.07
2018-11-28T20:03:23.088Z,4.12
2018-11-28T20:08:26.618Z,4.08
2018-11-28T20:13:30.714Z,4.05
2018-11-28T20:18:34.246Z,4.07
2018-11-28T20:23:37.832Z,4.11
2018-11-28T20:28:41.455Z,4.11
2018-11-28T20:33:45.004Z,4.14
2018-11-28T20:38:48.609Z,4.10
2018-11-28T20:43:53.345Z,4.08
2018-11-28T20:48:57.146Z,4.11
2018-11-28T20:54:00.808Z,4.18
2018-11-28T20:59:06.326Z,4.18
2018-11-28T21:04:10.982Z,4.18
2018-11-28T21:09:14.568Z,4.17
2018-11-28T21:14:18.220Z,4.17
2018-11-28T21:19:21.946Z,4.18
2018-11-28T21:24:26.741Z,4.20
2018-11-28T21:29:30.630Z,4.23
2018-11-28T21:34:34.282Z,4.22
2018-11-28T21:39:38.028Z,4.34
2018-11-28T21:44:41.905Z,4.25
2018-11-28T21:49:45.587Z,4.22
2018-11-28T21:54:49.197Z,4.17
2018-11-28T21:59:52.751Z,4.20
2018-11-28T22:04:56.580Z,4.19
2018-11-28T22:10:00.258Z,4.27
2018-11-28T22:15:04.275Z,4.23
2018-11-28T22:20:10.145Z,4.25
2018-11-28T22:25:17.927Z,4.25
2018-11-28T22:30:23.517Z,4.40
2018-11-28T22:35:27.172Z,4.52
2018-11-28T22:40:31.784Z,4.60
2018-11-28T22:45:36.630Z,4.30
2018-11-28T22:50:40.692Z,4.28
2018-11-28T22:55:44.281Z,4.42
2018-11-28T23:00:54.136Z,4.31
2018-11-28T23:05:57.692Z,4.37
2018-11-28T23:11:01.370Z,4.55
2018-11-28T23:16:05.133Z,4.74
2018-11-28T23:21:08.809Z,4.72
2018-11-28T23:26:12.509Z,4.74
2018-11-28T23:31:16.082Z,4.66
2018-11-28T23:36:20.681Z,4.42
2018-11-28T23:41:24.155Z,4.41
2018-11-28T23:46:27.772Z,4.49
2018-11-28T23:51:31.372Z,4.32
2018-11-28T23:56:34.890Z,4.28
